Terminal Aerodrome Forecast
Issued by NWS Sterling, VA

Current Version | Previous Version | Graphics & Text | Print | Product List | Glossary On
Versions: 1 2 3 4 5 6 7 8 9 10 11 12 13 14 15
000
FTUS41 KLWX 221722
TAFMRB
TAF
KMRB 221722Z 2218/2318 33017G32KT P6SM FEW250
     FM222100 33015G25KT P6SM SKC
     FM222300 34011G18KT P6SM SKC
     FM230100 33008KT P6SM SKC
     FM230500 34004KT P6SM SKC=

USA.gov is the U.S. government's official web portal to all federal, state and local government web resources and services.